createdAt,value
2019-03-05T00:00:49.080Z,5.87
2019-03-05T00:03:15.515Z,6.10
2019-03-05T00:05:41.749Z,5.87
2019-03-05T00:08:08.007Z,6.50
2019-03-05T00:10:34.245Z,6.35
2019-03-05T00:13:00.525Z,6.50
2019-03-05T00:15:28.269Z,6.60
2019-03-05T00:17:54.754Z,7.00
2019-03-05T00:20:20.982Z,6.70
2019-03-05T00:22:48.008Z,6.50
2019-03-05T00:25:19.978Z,7.67
2019-03-05T00:27:52.899Z,7.33
2019-03-05T00:30:35.190Z,6.80
2019-03-05T00:33:08.459Z,6.27
2019-03-05T00:35:53.289Z,6.50
2019-03-05T00:38:40.199Z,6.57
2019-03-05T00:41:37.596Z,6.50
2019-03-05T00:44:13.651Z,7.10
2019-03-05T00:46:43.703Z,6.40
2019-03-05T00:49:16.642Z,7.03
2019-03-05T00:51:52.727Z,6.70
2019-03-05T00:54:42.399Z,6.13
2019-03-05T00:57:36.301Z,5.97
2019-03-05T01:00:18.878Z,5.90
2019-03-05T01:02:51.986Z,6.60
2019-03-05T01:05:27.937Z,6.20
2019-03-05T01:07:55.078Z,6.73
2019-03-05T01:10:23.219Z,6.30
2019-03-05T01:12:49.776Z,6.30
2019-03-05T01:15:16.104Z,5.93
2019-03-05T01:17:42.337Z,6.30
2019-03-05T01:20:10.402Z,5.50
2019-03-05T01:22:40.035Z,5.50
2019-03-05T01:25:19.061Z,6.53
2019-03-05T01:27:45.405Z,5.50
2019-03-05T01:30:15.624Z,6.27
2019-03-05T01:32:44.084Z,5.57
2019-03-05T01:35:18.731Z,6.60
2019-03-05T01:37:45.108Z,6.63
2019-03-05T01:40:13.852Z,6.27
2019-03-05T01:42:40.063Z,6.27
2019-03-05T01:45:09.435Z,6.10
2019-03-05T01:47:40.393Z,6.50
2019-03-05T01:50:09.329Z,6.80
2019-03-05T01:52:35.578Z,6.07
2019-03-05T01:55:02.712Z,7.23
2019-03-05T01:57:29.316Z,6.63
2019-03-05T01:59:55.565Z,7.60
2019-03-05T02:02:21.796Z,7.30
2019-03-05T02:04:48.061Z,9.70
2019-03-05T02:07:15.084Z,6.83
2019-03-05T02:09:41.671Z,5.90
2019-03-05T02:12:08.329Z,6.10
2019-03-05T02:14:34.656Z,4.40
2019-03-05T02:17:00.932Z,4.87
2019-03-05T02:19:36.415Z,4.73
2019-03-05T02:22:24.692Z,4.30
2019-03-05T02:25:03.483Z,3.80
2019-03-05T02:27:50.232Z,3.80
2019-03-05T02:30:23.032Z,4.00
2019-03-05T02:32:53.106Z,2.90
2019-03-05T02:35:32.468Z,3.00
2019-03-05T02:38:11.335Z,3.43
2019-03-05T02:40:53.364Z,2.80
2019-03-05T02:43:26.148Z,3.20
2019-03-05T02:46:13.801Z,2.97
2019-03-05T02:48:50.158Z,3.12
2019-03-05T02:51:40.639Z,4.07
2019-03-05T02:54:19.755Z,4.07
2019-03-05T02:57:07.975Z,3.67
2019-03-05T02:59:34.511Z,3.70
2019-03-05T03:02:05.402Z,3.93
2019-03-05T03:04:33.541Z,3.70
2019-03-05T03:06:59.798Z,3.80
2019-03-05T03:09:29.838Z,3.80
2019-03-05T03:11:56.100Z,3.83
2019-03-05T03:14:23.751Z,3.70
2019-03-05T03:16:50.002Z,3.90
2019-03-05T03:19:16.256Z,3.90
2019-03-05T03:21:42.505Z,3.83
2019-03-05T03:24:09.028Z,3.80
2019-03-05T03:26:35.279Z,3.80
2019-03-05T03:29:01.510Z,3.83
2019-03-05T03:31:27.756Z,4.12
2019-03-05T03:33:53.988Z,3.72
2019-03-05T03:36:20.243Z,4.00
2019-03-05T03:38:46.484Z,3.90
2019-03-05T03:41:12.744Z,4.35
2019-03-05T03:43:38.979Z,4.47
2019-03-05T03:46:05.236Z,4.28
2019-03-05T03:48:31.614Z,4.97
2019-03-05T03:50:57.862Z,4.10
2019-03-05T03:53:24.109Z,4.10
2019-03-05T03:55:50.368Z,3.90
2019-03-05T03:58:16.827Z,4.12
2019-03-05T04:00:43.095Z,4.17
2019-03-05T04:03:09.334Z,4.70
2019-03-05T04:05:35.921Z,3.92
2019-03-05T04:08:04.954Z,4.50
2019-03-05T04:10:31.224Z,3.83
2019-03-05T04:12:57.464Z,3.85
2019-03-05T04:15:23.710Z,4.85
2019-03-05T04:17:50.064Z,3.47
2019-03-05T04:20:18.965Z,3.50
2019-03-05T04:22:45.208Z,3.50
2019-03-05T04:25:11.834Z,3.58
2019-03-05T04:27:38.073Z,3.27
2019-03-05T04:30:08.438Z,3.05
2019-03-05T04:32:34.659Z,3.12
2019-03-05T04:35:00.997Z,3.00
2019-03-05T04:37:27.591Z,2.72
2019-03-05T04:39:53.811Z,3.40
2019-03-05T04:42:20.056Z,3.75
2019-03-05T04:44:48.199Z,3.20
2019-03-05T04:47:14.454Z,4.00
2019-03-05T04:49:45.369Z,3.30
2019-03-05T04:52:13.522Z,3.27
2019-03-05T04:54:39.759Z,3.20
2019-03-05T04:57:06.113Z,3.40
2019-03-05T04:59:32.642Z,3.60
2019-03-05T05:01:59.181Z,3.95
2019-03-05T05:04:25.411Z,5.13
2019-03-05T05:06:51.663Z,4.50
2019-03-05T05:09:17.915Z,4.10
2019-03-05T05:11:44.171Z,4.85
2019-03-05T05:14:10.398Z,3.80
2019-03-05T05:16:36.970Z,3.60
2019-03-05T05:19:03.429Z,3.58
2019-03-05T05:21:29.667Z,3.93
2019-03-05T05:23:55.886Z,3.67
2019-03-05T05:26:22.144Z,6.12
2019-03-05T05:28:48.382Z,3.30
2019-03-05T05:31:14.623Z,3.72
2019-03-05T05:33:40.848Z,3.57
2019-03-05T05:36:07.092Z,3.40
2019-03-05T05:38:33.354Z,4.00
2019-03-05T05:40:59.589Z,3.90
2019-03-05T05:43:30.499Z,4.03
2019-03-05T05:45:56.863Z,3.90
2019-03-05T05:48:23.117Z,3.70
2019-03-05T05:50:49.355Z,3.83
2019-03-05T05:53:15.583Z,4.53
2019-03-05T05:55:42.070Z,4.40
2019-03-05T05:58:08.299Z,3.30
2019-03-05T06:00:37.000Z,3.45
2019-03-05T06:03:03.291Z,3.90
2019-03-05T06:05:29.616Z,3.12
2019-03-05T06:07:55.842Z,4.00
2019-03-05T06:10:22.084Z,4.28
2019-03-05T06:12:48.315Z,3.92
2019-03-05T06:15:15.002Z,4.08
2019-03-05T06:17:41.340Z,4.35
2019-03-05T06:20:13.475Z,3.70
2019-03-05T06:22:39.718Z,3.65
2019-03-05T06:25:11.681Z,3.73
2019-03-05T06:27:58.272Z,3.75
2019-03-05T06:30:33.384Z,4.23
2019-03-05T06:32:59.618Z,4.03
2019-03-05T06:35:25.984Z,4.08
2019-03-05T06:37:52.217Z,4.40
2019-03-05T06:40:21.796Z,3.72
2019-03-05T06:42:48.048Z,3.80
2019-03-05T06:45:18.710Z,4.42
2019-03-05T06:47:45.322Z,4.10
2019-03-05T06:50:14.446Z,4.07
2019-03-05T06:52:40.771Z,5.12
2019-03-05T06:55:10.300Z,4.72
2019-03-05T06:57:36.615Z,4.12
2019-03-05T07:00:06.652Z,3.58
2019-03-05T07:02:32.923Z,4.25
2019-03-05T07:04:59.151Z,4.27
2019-03-05T07:07:25.503Z,4.33
2019-03-05T07:10:01.623Z,3.80
2019-03-05T07:12:34.503Z,3.33
2019-03-05T07:15:30.437Z,3.40
2019-03-05T07:18:12.651Z,4.10
2019-03-05T07:21:05.382Z,4.55
2019-03-05T07:23:55.541Z,3.98
2019-03-05T07:26:21.782Z,3.80
2019-03-05T07:28:48.020Z,3.45
2019-03-05T07:31:14.244Z,3.50
2019-03-05T07:33:40.569Z,4.20
2019-03-05T07:36:07.148Z,4.70
2019-03-05T07:38:33.391Z,3.93
2019-03-05T07:40:59.651Z,4.60
2019-03-05T07:43:36.186Z,4.43
2019-03-05T07:45:53.931Z,4.20
2019-03-05T07:48:20.216Z,4.00
2019-03-05T07:50:46.750Z,3.57
2019-03-05T07:53:12.991Z,4.20
2019-03-05T07:55:39.235Z,3.95
2019-03-05T07:58:05.502Z,4.03
2019-03-05T08:00:31.831Z,3.73
2019-03-05T08:02:58.514Z,3.37
2019-03-05T08:05:24.752Z,3.80
2019-03-05T08:07:51.057Z,4.28
2019-03-05T08:10:26.015Z,3.67
2019-03-05T08:13:13.318Z,4.30
2019-03-05T08:16:02.767Z,3.60
2019-03-05T08:18:28.378Z,4.00
2019-03-05T08:20:54.595Z,3.90
2019-03-05T08:23:20.906Z,3.40
2019-03-05T08:25:47.170Z,3.90
2019-03-05T08:28:13.502Z,3.50
2019-03-05T08:30:39.778Z,3.60
2019-03-05T08:33:06.003Z,3.03
2019-03-05T08:35:32.551Z,3.43
2019-03-05T08:37:58.821Z,3.77
2019-03-05T08:40:25.042Z,3.83
2019-03-05T08:42:51.339Z,3.37
2019-03-05T08:45:28.454Z,4.00
2019-03-05T08:47:45.727Z,3.60
2019-03-05T08:50:14.691Z,3.97
2019-03-05T08:52:41.165Z,3.67
2019-03-05T08:55:09.328Z,3.80
2019-03-05T08:57:36.283Z,2.90
2019-03-05T09:00:17.411Z,3.30
2019-03-05T09:02:48.588Z,3.57
2019-03-05T09:05:13.790Z,3.60
2019-03-05T09:07:40.662Z,3.10
2019-03-05T09:10:20.170Z,3.30
2019-03-05T09:12:46.914Z,3.90
2019-03-05T09:15:17.167Z,3.03
2019-03-05T09:17:43.915Z,3.23
2019-03-05T09:20:15.886Z,3.30
2019-03-05T09:22:42.475Z,3.47
2019-03-05T09:25:12.082Z,3.37
2019-03-05T09:27:38.316Z,2.93
2019-03-05T09:30:08.364Z,3.30
2019-03-05T09:32:34.592Z,3.13
2019-03-05T09:35:00.862Z,3.10
2019-03-05T09:37:27.083Z,3.40
2019-03-05T09:39:53.347Z,4.10
2019-03-05T09:42:19.567Z,4.00
2019-03-05T09:44:45.831Z,4.30
2019-03-05T09:47:12.051Z,3.90
2019-03-05T09:49:38.316Z,3.93
2019-03-05T09:52:04.591Z,3.97
2019-03-05T09:54:30.794Z,3.30
2019-03-05T09:56:57.020Z,4.00
2019-03-05T09:59:23.274Z,3.90
2019-03-05T10:01:50.792Z,4.27
2019-03-05T10:04:17.041Z,3.87
2019-03-05T10:06:43.270Z,3.30
2019-03-05T10:09:11.433Z,4.90
2019-03-05T10:11:37.657Z,4.13
2019-03-05T10:14:04.050Z,3.40
2019-03-05T10:16:30.571Z,3.70
2019-03-05T10:18:56.824Z,3.50
2019-03-05T10:21:23.337Z,3.30
2019-03-05T10:23:49.912Z,3.77
2019-03-05T10:26:18.506Z,3.80
2019-03-05T10:28:44.172Z,3.37
2019-03-05T10:31:10.593Z,3.30
2019-03-05T10:33:37.130Z,3.70
2019-03-05T10:36:03.309Z,4.00
2019-03-05T10:38:30.010Z,4.00
2019-03-05T10:40:58.707Z,3.50
2019-03-05T10:43:24.966Z,4.20
2019-03-05T10:45:51.193Z,4.00
2019-03-05T10:48:22.996Z,3.00
2019-03-05T10:50:49.336Z,3.33
2019-03-05T10:53:16.018Z,3.23
2019-03-05T10:55:42.352Z,3.20
2019-03-05T10:58:08.792Z,3.17
2019-03-05T11:00:43.657Z,3.10
2019-03-05T11:03:10.413Z,3.10
2019-03-05T11:05:40.126Z,3.40
2019-03-05T11:08:20.227Z,3.30
2019-03-05T11:10:46.922Z,3.80
2019-03-05T11:13:13.410Z,3.20
2019-03-05T11:15:39.624Z,2.75
2019-03-05T11:18:07.366Z,3.40
2019-03-05T11:20:34.103Z,3.17
2019-03-05T11:23:00.458Z,2.53
2019-03-05T11:25:26.669Z,3.03
2019-03-05T11:27:53.010Z,2.80
2019-03-05T11:30:22.563Z,2.90
2019-03-05T11:32:48.804Z,3.10
2019-03-05T11:35:18.256Z,2.50
2019-03-05T11:37:45.363Z,2.53
2019-03-05T11:40:21.059Z,2.33
2019-03-05T11:42:44.075Z,2.73
2019-03-05T11:45:17.022Z,2.40
2019-03-05T11:47:43.616Z,2.00
2019-03-05T11:50:11.776Z,2.20
2019-03-05T11:52:39.877Z,2.20
2019-03-05T11:55:09.963Z,2.20
2019-03-05T11:57:36.287Z,2.10
2019-03-05T12:00:06.369Z,1.90
2019-03-05T12:02:32.757Z,2.10
2019-03-05T12:04:59.102Z,2.60
2019-03-05T12:07:25.485Z,2.03
2019-03-05T12:09:52.352Z,2.10
2019-03-05T12:12:18.911Z,2.20
2019-03-05T12:14:45.338Z,2.50
2019-03-05T12:17:11.604Z,2.33
2019-03-05T12:19:37.985Z,2.40
2019-03-05T12:22:04.520Z,2.10
2019-03-05T12:24:31.111Z,2.07
2019-03-05T12:26:57.396Z,1.87
2019-03-05T12:29:25.443Z,1.50
2019-03-05T12:31:52.275Z,1.60
2019-03-05T12:34:18.544Z,1.60
2019-03-05T12:36:44.939Z,1.20
2019-03-05T12:39:15.405Z,1.30
2019-03-05T12:41:41.783Z,1.17
2019-03-05T12:44:08.167Z,1.42
2019-03-05T12:46:34.451Z,1.40
2019-03-05T12:49:02.316Z,1.40
2019-03-05T12:51:28.681Z,1.50
2019-03-05T12:53:54.967Z,1.47
2019-03-05T12:56:24.193Z,1.67
2019-03-05T12:58:49.442Z,1.40
2019-03-05T13:01:16.042Z,1.77
2019-03-05T13:03:42.781Z,1.65
2019-03-05T13:06:10.777Z,1.95
2019-03-05T13:08:37.079Z,1.80
2019-03-05T13:11:05.220Z,2.20
2019-03-05T13:13:31.538Z,2.17
2019-03-05T13:15:58.050Z,1.57
2019-03-05T13:18:26.765Z,1.80
2019-03-05T13:20:53.518Z,2.10
2019-03-05T13:23:20.623Z,2.50
2019-03-05T13:25:47.469Z,2.00
2019-03-05T13:28:13.869Z,2.03
2019-03-05T13:30:42.654Z,1.80
2019-03-05T13:33:09.505Z,2.20
2019-03-05T13:35:36.015Z,1.97
2019-03-05T13:38:07.699Z,2.33
2019-03-05T13:40:34.087Z,1.97
2019-03-05T13:43:01.710Z,1.90
2019-03-05T13:45:31.409Z,2.00
2019-03-05T13:48:23.924Z,1.53
2019-03-05T13:51:00.088Z,1.80
2019-03-05T13:54:00.551Z,2.00
2019-03-05T13:56:42.382Z,2.50
2019-03-05T13:59:15.471Z,1.97
2019-03-05T14:01:42.037Z,2.20
2019-03-05T14:04:26.841Z,2.50
2019-03-05T14:07:03.136Z,2.20
2019-03-05T14:09:29.314Z,2.37
2019-03-05T14:11:55.819Z,2.57
2019-03-05T14:14:24.432Z,2.80
2019-03-05T14:17:07.040Z,2.57
2019-03-05T14:19:33.725Z,2.60
2019-03-05T14:22:00.512Z,2.60
2019-03-05T14:24:27.658Z,2.33
2019-03-05T14:26:55.688Z,2.87
2019-03-05T14:29:22.088Z,3.00
2019-03-05T14:31:48.555Z,2.50
2019-03-05T14:34:15.143Z,2.77
2019-03-05T14:36:41.680Z,2.90
2019-03-05T14:39:20.779Z,3.43
2019-03-05T14:41:47.255Z,3.07
2019-03-05T14:44:15.468Z,2.70
2019-03-05T14:46:43.355Z,2.87
2019-03-05T14:49:11.235Z,2.63
2019-03-05T14:51:38.011Z,3.07
2019-03-05T14:54:04.572Z,2.80
2019-03-05T14:56:33.737Z,3.03
2019-03-05T14:59:00.066Z,2.67
2019-03-05T15:01:26.494Z,2.70
2019-03-05T15:03:52.979Z,3.23
2019-03-05T15:06:19.514Z,3.00
2019-03-05T15:08:45.820Z,3.07
2019-03-05T15:11:12.801Z,3.20
2019-03-05T15:13:39.169Z,3.00
2019-03-05T15:16:05.533Z,3.67
2019-03-05T15:18:35.061Z,2.93
2019-03-05T15:21:01.497Z,3.50
2019-03-05T15:23:27.786Z,4.00
2019-03-05T15:25:54.478Z,3.00
2019-03-05T15:28:20.817Z,3.70
2019-03-05T15:30:47.475Z,3.77
2019-03-05T15:33:13.872Z,3.30
2019-03-05T15:35:40.269Z,3.50
2019-03-05T15:38:06.775Z,2.77
2019-03-05T15:40:33.397Z,2.93
2019-03-05T15:42:59.855Z,2.87
2019-03-05T15:45:28.596Z,2.87
2019-03-05T15:47:56.073Z,2.80
2019-03-05T15:50:28.692Z,3.50
2019-03-05T15:52:55.339Z,4.00
2019-03-05T15:55:22.237Z,2.70
2019-03-05T15:57:48.697Z,2.63
2019-03-05T16:00:25.118Z,2.10
2019-03-05T16:02:52.211Z,2.63
2019-03-05T16:05:20.711Z,2.70
2019-03-05T16:07:48.048Z,2.20
2019-03-05T16:10:17.126Z,2.30
2019-03-05T16:12:44.084Z,2.43
2019-03-05T16:15:13.359Z,2.10
2019-03-05T16:17:40.186Z,2.53
2019-03-05T16:20:12.085Z,2.60
2019-03-05T16:22:38.624Z,2.00
2019-03-05T16:25:09.956Z,3.50
2019-03-05T16:27:36.947Z,3.10
2019-03-05T16:30:10.542Z,2.60
2019-03-05T16:32:38.763Z,2.87
2019-03-05T16:35:08.261Z,2.47
2019-03-05T16:37:39.281Z,2.53
2019-03-05T16:40:11.585Z,2.33
2019-03-05T16:42:42.863Z,3.00
2019-03-05T16:45:23.396Z,2.60
2019-03-05T16:48:09.121Z,3.13
2019-03-05T16:50:39.930Z,2.17
2019-03-05T16:53:17.453Z,2.23
2019-03-05T16:55:45.764Z,2.73
2019-03-05T16:58:19.792Z,2.13
2019-03-05T17:00:51.892Z,2.20
2019-03-05T17:03:20.473Z,2.97
2019-03-05T17:05:51.658Z,2.90
2019-03-05T17:08:25.742Z,2.67
2019-03-05T17:11:02.823Z,3.00
2019-03-05T17:13:29.622Z,2.80
2019-03-05T17:15:55.949Z,3.00
2019-03-05T17:18:22.494Z,2.57
2019-03-05T17:20:50.428Z,2.40
2019-03-05T17:23:18.873Z,2.03
2019-03-05T17:25:45.161Z,2.27
2019-03-05T17:28:11.634Z,2.07
2019-03-05T17:30:38.119Z,3.10
2019-03-05T17:33:06.359Z,2.87
2019-03-05T17:35:32.629Z,2.90
2019-03-05T17:37:59.131Z,3.73
2019-03-05T17:40:28.372Z,3.00
2019-03-05T17:42:55.055Z,3.90
2019-03-05T17:45:23.136Z,4.30
2019-03-05T17:47:49.901Z,6.07
2019-03-05T17:50:16.402Z,6.57
2019-03-05T17:52:42.956Z,5.27
2019-03-05T17:55:13.562Z,4.90
2019-03-05T17:57:41.807Z,3.50
2019-03-05T18:00:16.166Z,2.97
2019-03-05T18:02:42.525Z,3.57
2019-03-05T18:05:08.922Z,2.90
2019-03-05T18:07:35.305Z,3.37
2019-03-05T18:10:02.377Z,5.63
2019-03-05T18:12:28.758Z,4.80
2019-03-05T18:14:55.160Z,5.00
2019-03-05T18:17:21.723Z,5.20
2019-03-05T18:19:48.688Z,4.17
2019-03-05T18:22:15.156Z,4.40
2019-03-05T18:24:41.766Z,3.63
2019-03-05T18:27:08.278Z,3.70
2019-03-05T18:29:34.894Z,3.40
2019-03-05T18:32:02.305Z,3.10
2019-03-05T18:34:30.090Z,3.83
2019-03-05T18:36:56.474Z,3.90
2019-03-05T18:39:23.107Z,3.80
2019-03-05T18:41:51.110Z,3.80
2019-03-05T18:44:17.714Z,3.27
2019-03-05T18:46:44.114Z,4.00
2019-03-05T18:49:10.653Z,4.30
2019-03-05T18:51:36.912Z,4.87
2019-03-05T18:54:03.357Z,4.10
2019-03-05T18:56:30.855Z,4.40
2019-03-05T18:58:57.230Z,4.12
2019-03-05T19:01:23.611Z,4.47
2019-03-05T19:03:50.405Z,3.60
2019-03-05T19:06:17.157Z,4.97
2019-03-05T19:08:43.442Z,5.70
2019-03-05T19:11:10.106Z,5.10
2019-03-05T19:13:36.315Z,4.80
2019-03-05T19:16:02.774Z,4.60
2019-03-05T19:18:29.072Z,4.67
2019-03-05T19:20:55.315Z,4.07
2019-03-05T19:23:21.552Z,3.90
2019-03-05T19:25:48.009Z,3.30
2019-03-05T19:28:14.818Z,3.30
2019-03-05T19:30:44.807Z,3.57
2019-03-05T19:33:11.371Z,3.97
2019-03-05T19:35:37.722Z,3.00
2019-03-05T19:38:04.351Z,3.33
2019-03-05T19:40:42.751Z,3.50
2019-03-05T19:43:09.321Z,3.27
2019-03-05T19:45:36.030Z,3.30
2019-03-05T19:48:02.377Z,3.30
2019-03-05T19:50:28.816Z,3.60
2019-03-05T19:52:55.450Z,3.25
2019-03-05T19:55:29.472Z,3.60
2019-03-05T19:58:09.179Z,3.47
2019-03-05T20:00:57.658Z,3.17
2019-03-05T20:03:24.181Z,3.20
2019-03-05T20:05:50.442Z,3.62
2019-03-05T20:08:16.782Z,3.45
2019-03-05T20:10:43.152Z,3.20
2019-03-05T20:13:09.591Z,2.80
2019-03-05T20:15:36.146Z,4.40
2019-03-05T20:18:02.815Z,4.28
2019-03-05T20:20:29.027Z,4.80
2019-03-05T20:22:55.286Z,4.85
2019-03-05T20:25:24.900Z,4.03
2019-03-05T20:27:51.302Z,4.25
2019-03-05T20:30:19.434Z,4.20
2019-03-05T20:32:46.104Z,4.05
2019-03-05T20:35:13.054Z,3.33
2019-03-05T20:37:39.352Z,3.33
2019-03-05T20:40:11.442Z,4.62
2019-03-05T20:42:37.672Z,3.90
2019-03-05T20:45:07.717Z,3.27
2019-03-05T20:47:34.027Z,3.00
2019-03-05T20:50:01.893Z,3.50
2019-03-05T20:52:28.350Z,3.80
2019-03-05T20:54:54.602Z,3.52
2019-03-05T20:57:20.843Z,3.62
2019-03-05T20:59:47.083Z,3.42
2019-03-05T21:02:13.730Z,4.00
2019-03-05T21:04:39.969Z,3.92
2019-03-05T21:07:06.269Z,3.98
2019-03-05T21:09:32.741Z,4.30
2019-03-05T21:11:59.195Z,5.58
2019-03-05T21:14:25.594Z,5.05
2019-03-05T21:16:52.054Z,5.12
2019-03-05T21:19:18.321Z,4.15
2019-03-05T21:21:44.912Z,4.50
2019-03-05T21:24:11.571Z,5.33
2019-03-05T21:26:46.104Z,4.72
2019-03-05T21:29:12.435Z,4.58
2019-03-05T21:31:38.660Z,4.75
2019-03-05T21:34:04.915Z,5.60
2019-03-05T21:36:31.146Z,4.12
2019-03-05T21:38:57.710Z,5.20
2019-03-05T21:41:24.370Z,5.30
2019-03-05T21:43:50.607Z,4.65
2019-03-05T21:46:17.282Z,4.42
2019-03-05T21:48:43.547Z,4.60
2019-03-05T21:51:09.879Z,4.63
2019-03-05T21:53:36.742Z,4.90
2019-03-05T21:56:02.987Z,4.83
2019-03-05T21:58:29.595Z,4.78
2019-03-05T22:00:56.132Z,5.45
2019-03-05T22:03:22.788Z,4.55
2019-03-05T22:05:49.122Z,4.62
2019-03-05T22:08:15.670Z,4.40
2019-03-05T22:10:41.911Z,5.97
2019-03-05T22:13:08.494Z,4.75
2019-03-05T22:15:35.644Z,4.72
2019-03-05T22:18:01.893Z,5.05
2019-03-05T22:20:28.144Z,4.50
2019-03-05T22:22:54.959Z,4.60
2019-03-05T22:25:24.840Z,5.58
2019-03-05T22:27:51.514Z,5.30
2019-03-05T22:30:26.971Z,4.65
2019-03-05T22:32:53.219Z,6.47
2019-03-05T22:35:19.948Z,4.70
2019-03-05T22:37:46.324Z,4.70
2019-03-05T22:40:14.554Z,5.22
2019-03-05T22:42:40.794Z,4.58
2019-03-05T22:45:16.684Z,4.75
2019-03-05T22:47:42.962Z,5.40
2019-03-05T22:50:11.101Z,6.17
2019-03-05T22:52:37.466Z,5.70
2019-03-05T22:55:06.291Z,6.28
2019-03-05T22:57:32.534Z,6.33
2019-03-05T22:59:58.752Z,6.37
2019-03-05T23:02:25.643Z,5.92
2019-03-05T23:04:53.097Z,6.87
2019-03-05T23:07:19.323Z,6.47
2019-03-05T23:09:45.891Z,6.55
2019-03-05T23:12:12.400Z,6.80
2019-03-05T23:14:39.067Z,7.10
2019-03-05T23:17:06.506Z,6.95
2019-03-05T23:19:32.857Z,6.75
2019-03-05T23:21:59.464Z,6.60
2019-03-05T23:24:26.019Z,8.60
2019-03-05T23:26:52.243Z,7.83
2019-03-05T23:29:20.484Z,7.55
2019-03-05T23:31:46.822Z,8.45
2019-03-05T23:34:18.268Z,8.40
2019-03-05T23:36:41.124Z,9.25
2019-03-05T23:39:09.631Z,9.28
2019-03-05T23:41:35.858Z,9.53
2019-03-05T23:44:02.213Z,8.90
2019-03-05T23:46:28.446Z,8.53
2019-03-05T23:48:54.706Z,8.08
2019-03-05T23:51:21.288Z,8.05
2019-03-05T23:53:47.516Z,8.10
2019-03-05T23:56:13.771Z,8.30
2019-03-05T23:58:39.999Z,7.70
